Time;durP1;ratioP1;P1;durP2;ratioP2;P2;SDS_P1;SDS_P2;PMS_P1;PMS_P2;Temp;Humidity;BMP_temperature;BMP_pressure;BME280_temperature;BME280_humidity;BME280_pressure;Samples;Min_cycle;Max_cycle;Signal;HPM_P1;HPM_P2
2022/10/10 00:00:38;;;;;;;3.90;2.88;;;14.00;41.40;;;;;;5112482;28;20186;-44
2022/10/10 00:03:05;;;;;;;9.55;2.85;;;14.00;41.10;;;;;;5112304;28;20224;-44
2022/10/10 00:05:31;;;;;;;5.13;2.90;;;14.00;41.00;;;;;;5111986;28;20605;-44
2022/10/10 00:07:57;;;;;;;7.43;3.43;;;14.00;41.10;;;;;;5111994;28;20174;-44
2022/10/10 00:10:24;;;;;;;3.95;3.00;;;14.00;41.00;;;;;;5112324;28;20405;-44
2022/10/10 00:12:49;;;;;;;6.53;2.35;;;14.00;40.90;;;;;;5112212;28;20171;-44
2022/10/10 00:15:15;;;;;;;4.73;2.80;;;14.00;40.80;;;;;;5112018;28;20262;-44
2022/10/10 00:17:42;;;;;;;3.57;2.47;;;14.10;40.70;;;;;;5111865;28;20175;-44
2022/10/10 00:20:10;;;;;;;6.45;2.75;;;14.10;40.60;;;;;;5112115;28;20423;-43
2022/10/10 00:22:36;;;;;;;5.20;3.10;;;14.10;40.30;;;;;;5112312;28;20206;-43
2022/10/10 00:25:02;;;;;;;8.03;2.77;;;14.10;40.20;;;;;;5111789;28;20231;-44
2022/10/10 00:27:28;;;;;;;6.05;3.67;;;14.10;40.20;;;;;;5111442;28;20503;-43
2022/10/10 00:29:54;;;;;;;3.07;2.77;;;14.10;40.00;;;;;;5115707;28;20199;-44
2022/10/10 00:32:19;;;;;;;4.50;2.80;;;14.10;40.00;;;;;;5115781;28;20795;-43
2022/10/10 00:34:45;;;;;;;5.90;2.37;;;14.10;39.80;;;;;;5116280;28;20216;-44
2022/10/10 00:37:11;;;;;;;6.13;3.27;;;14.10;39.90;;;;;;5115036;28;20188;-44
2022/10/10 00:39:36;;;;;;;3.30;2.63;;;14.10;39.90;;;;;;5115975;28;20171;-44
2022/10/10 00:42:02;;;;;;;9.10;3.97;;;14.10;39.70;;;;;;5115710;28;20195;-43
2022/10/10 00:44:28;;;;;;;3.63;2.80;;;14.10;39.50;;;;;;5115837;28;20627;-43
2022/10/10 00:46:54;;;;;;;7.47;3.87;;;14.10;39.70;;;;;;5114864;27;20960;-44
2022/10/10 00:49:24;;;;;;;3.70;2.90;;;14.10;39.70;;;;;;5115577;28;20168;-43
2022/10/10 00:51:58;;;;;;;2.95;2.50;;;14.10;39.50;;;;;;5115517;28;20167;-43
2022/10/10 00:54:26;;;;;;;5.90;2.22;;;14.10;39.50;;;;;;5115434;28;20175;-43
2022/10/10 00:56:57;;;;;;;4.45;3.00;;;14.10;39.50;;;;;;5114830;28;20595;-44
2022/10/10 00:59:25;;;;;;;5.65;2.40;;;14.10;39.50;;;;;;5116467;28;20183;-44
2022/10/10 01:01:50;;;;;;;3.13;2.60;;;14.10;39.50;;;;;;5117152;28;20181;-44
2022/10/10 01:04:34;;;;;;;5.30;3.30;;;14.10;39.30;;;;;;5117804;28;20262;-43
2022/10/10 01:07:27;;;;;;;6.93;3.22;;;14.10;39.40;;;;;;5115855;28;20211;-42
2022/10/10 01:09:56;;;;;;;3.65;2.40;;;14.10;39.40;;;;;;5112874;28;20733;-44
2022/10/10 01:12:46;;;;;;;7.30;3.83;;;14.00;39.30;;;;;;5116486;28;20182;-44
2022/10/10 01:15:17;;;;;;;5.30;3.80;;;14.00;39.30;;;;;;5116474;28;20662;-44
2022/10/10 01:18:13;;;;;;;5.00;2.30;;;14.00;39.20;;;;;;5114654;28;20174;-43
2022/10/10 01:20:47;;;;;;;2.67;2.03;;;14.00;39.20;;;;;;5114910;28;20220;-43
2022/10/10 01:23:37;;;;;;;3.58;2.20;;;13.90;39.40;;;;;;5114978;28;20578;-43
2022/10/10 01:26:31;;;;;;;6.43;3.22;;;13.90;39.30;;;;;;5113995;28;20207;-44
2022/10/10 01:29:22;;;;;;;4.30;2.70;;;13.80;39.30;;;;;;5114643;28;20179;-43
2022/10/10 01:31:52;;;;;;;3.15;2.00;;;13.80;39.30;;;;;;5114680;28;20167;-43
2022/10/10 01:34:27;;;;;;;3.97;2.47;;;13.70;39.40;;;;;;5114618;28;20232;-43
2022/10/10 01:37:09;;;;;;;5.10;2.35;;;13.70;40.00;;;;;;5113823;28;20550;-44
2022/10/10 01:39:52;;;;;;;5.72;4.32;;;13.70;39.30;;;;;;5114460;28;20182;-43
2022/10/10 01:42:44;;;;;;;6.05;3.40;;;13.70;39.40;;;;;;5114450;28;20179;-43
2022/10/10 01:45:09;;;;;;;6.63;2.33;;;13.70;39.40;;;;;;5114304;28;20219;-44
2022/10/10 01:47:35;;;;;;;5.83;3.00;;;13.60;39.40;;;;;;5114022;28;20263;-44
2022/10/10 01:50:07;;;;;;;5.50;3.40;;;13.50;39.60;;;;;;5114613;28;20405;-43
2022/10/10 01:52:45;;;;;;;5.18;3.38;;;13.60;39.50;;;;;;5114353;28;20174;-43
2022/10/10 01:55:34;;;;;;;3.22;2.40;;;13.60;39.50;;;;;;5114067;28;20162;-44
2022/10/10 01:58:27;;;;;;;6.40;3.03;;;13.60;40.20;;;;;;5114152;28;20175;-43
2022/10/10 02:00:58;;;;;;;7.60;2.45;;;13.50;39.60;;;;;;5114104;28;20638;-44
2022/10/10 02:03:35;;;;;;;6.47;2.78;;;13.50;39.60;;;;;;5114162;28;20214;-43
2022/10/10 02:06:21;;;;;;;3.92;2.25;;;13.50;39.60;;;;;;5113572;28;20199;-44
2022/10/10 02:09:16;;;;;;;5.57;2.38;;;13.60;39.20;;;;;;5113922;27;20515;-44
2022/10/10 02:11:42;;;;;;;9.70;2.78;;;13.60;39.30;;;;;;5112238;28;20188;-43
2022/10/10 02:14:21;;;;;;;7.60;3.05;;;13.60;39.30;;;;;;5114095;28;20171;-44
2022/10/10 02:16:51;;;;;;;7.07;3.35;;;13.70;39.20;;;;;;5113376;28;20544;-43
2022/10/10 02:19:20;;;;;;;7.15;2.95;;;13.60;39.10;;;;;;5113675;28;20168;-45
2022/10/10 02:21:51;;;;;;;4.25;2.40;;;13.70;39.10;;;;;;5113975;28;20193;-43
2022/10/10 02:24:20;;;;;;;4.18;2.78;;;13.60;39.10;;;;;;5113463;28;20190;-43
2022/10/10 02:26:57;;;;;;;5.28;3.10;;;13.70;39.30;;;;;;5113095;28;20251;-43
2022/10/10 02:29:30;;;;;;;2.92;2.47;;;13.60;39.30;;;;;;5113378;28;20614;-44
2022/10/10 02:32:10;;;;;;;4.07;2.45;;;13.60;39.30;;;;;;5114062;28;20155;-43
2022/10/10 02:34:45;;;;;;;2.92;2.35;;;13.70;39.30;;;;;;5113487;27;20634;-43
2022/10/10 02:37:13;;;;;;;5.65;3.00;;;13.70;39.10;;;;;;5112917;28;20591;-44
2022/10/10 02:39:52;;;;;;;4.22;2.10;;;13.70;39.10;;;;;;5113428;28;20195;-43
2022/10/10 02:42:20;;;;;;;2.92;2.55;;;13.80;39.10;;;;;;5113601;28;20164;-44
2022/10/10 02:44:46;;;;;;;5.85;2.83;;;13.80;39.00;;;;;;5113209;28;20178;-43
2022/10/10 02:47:12;;;;;;;5.33;2.97;;;13.80;39.10;;;;;;5112633;28;20191;-43
2022/10/10 02:49:38;;;;;;;2.70;2.40;;;13.70;39.10;;;;;;5113422;28;20993;-44
2022/10/10 02:52:04;;;;;;;3.60;2.13;;;13.70;39.20;;;;;;5112448;28;20401;-44
2022/10/10 02:54:30;;;;;;;4.07;2.70;;;13.80;39.20;;;;;;5113071;28;20658;-44
2022/10/10 02:56:56;;;;;;;7.63;2.80;;;13.70;39.30;;;;;;5112428;28;20199;-44
2022/10/10 02:59:22;;;;;;;6.22;3.33;;;13.70;39.30;;;;;;5113325;28;20182;-44
2022/10/10 03:01:48;;;;;;;3.70;2.00;;;13.70;39.10;;;;;;5112881;28;20175;-44
2022/10/10 03:04:14;;;;;;;5.23;2.90;;;13.70;39.30;;;;;;5112970;28;20178;-43
2022/10/10 03:06:40;;;;;;;4.68;2.90;;;13.70;39.30;;;;;;5112064;28;20199;-44
2022/10/10 03:09:06;;;;;;;6.47;2.97;;;13.80;39.10;;;;;;5112891;28;20174;-43
2022/10/10 03:11:32;;;;;;;4.73;2.67;;;13.80;39.10;;;;;;5113171;28;20175;-44
2022/10/10 03:13:57;;;;;;;3.90;3.10;;;13.80;39.20;;;;;;5113022;28;20175;-44
2022/10/10 03:16:23;;;;;;;4.43;3.37;;;13.80;39.10;;;;;;5112579;28;20268;-43
2022/10/10 03:18:49;;;;;;;5.70;2.77;;;13.80;39.00;;;;;;5112993;28;20680;-44
2022/10/10 03:21:15;;;;;;;6.27;2.80;;;13.90;39.00;;;;;;5112868;28;20504;-44
2022/10/10 03:23:41;;;;;;;3.90;2.80;;;13.90;38.90;;;;;;5112588;28;20175;-44
2022/10/10 03:26:07;;;;;;;3.67;2.90;;;13.90;38.90;;;;;;5112065;28;20211;-44
2022/10/10 03:28:32;;;;;;;2.80;2.50;;;13.90;39.00;;;;;;5112578;28;20179;-44
2022/10/10 03:30:58;;;;;;;6.60;3.47;;;13.90;39.00;;;;;;5112689;28;20177;-44
2022/10/10 03:33:24;;;;;;;4.53;3.10;;;13.90;38.90;;;;;;5112614;28;20167;-43
2022/10/10 03:35:50;;;;;;;3.70;2.60;;;13.80;38.90;;;;;;5111801;28;20581;-44
2022/10/10 03:38:16;;;;;;;3.37;2.40;;;13.90;39.10;;;;;;5112804;28;20175;-45
2022/10/10 03:40:43;;;;;;;7.60;3.37;;;13.90;39.00;;;;;;5112786;28;20311;-43
2022/10/10 03:43:10;;;;;;;10.20;3.47;;;13.90;38.90;;;;;;5112506;28;20393;-44
2022/10/10 03:45:36;;;;;;;5.78;3.10;;;13.90;39.00;;;;;;5111619;28;20705;-43
2022/10/10 03:48:02;;;;;;;3.78;3.47;;;13.80;38.90;;;;;;5112489;28;20178;-44
2022/10/10 03:50:28;;;;;;;4.55;2.95;;;13.80;39.00;;;;;;5112302;28;20185;-43
2022/10/10 03:52:54;;;;;;;5.60;3.03;;;13.80;39.10;;;;;;5112400;28;20163;-44
2022/10/10 03:55:20;;;;;;;5.00;3.30;;;13.80;39.10;;;;;;5112151;28;20251;-44
2022/10/10 03:57:46;;;;;;;3.30;2.53;;;13.80;39.10;;;;;;5111948;28;20415;-43
2022/10/10 04:00:12;;;;;;;4.93;3.10;;;13.80;39.60;;;;;;5112401;28;20544;-44
2022/10/10 04:02:37;;;;;;;5.15;3.65;;;13.70;39.20;;;;;;5113898;28;20405;-43
2022/10/10 04:05:04;;;;;;;5.07;2.83;;;13.70;39.30;;;;;;5116046;28;20179;-44
2022/10/10 04:07:30;;;;;;;6.70;3.28;;;13.60;39.40;;;;;;5115569;28;20168;-44
2022/10/10 04:09:56;;;;;;;4.30;3.13;;;13.60;39.40;;;;;;5116356;28;20183;-44
2022/10/10 04:12:22;;;;;;;4.60;2.60;;;13.60;39.30;;;;;;5116266;28;20572;-44
2022/10/10 04:14:48;;;;;;;4.10;3.10;;;13.70;39.10;;;;;;5116174;28;20403;-44
2022/10/10 04:17:14;;;;;;;5.07;3.40;;;13.80;39.10;;;;;;5115431;28;20187;-43
2022/10/10 04:19:39;;;;;;;5.53;3.05;;;13.70;39.20;;;;;;5115975;28;20630;-44
2022/10/10 04:22:05;;;;;;;4.97;3.23;;;13.70;39.10;;;;;;5116254;28;20199;-44
2022/10/10 04:24:31;;;;;;;6.70;3.97;;;13.70;39.10;;;;;;5116088;28;20187;-44
2022/10/10 04:26:57;;;;;;;6.63;3.13;;;13.80;39.00;;;;;;5115136;28;20793;-43
2022/10/10 04:29:22;;;;;;;4.43;2.90;;;13.80;39.00;;;;;;5116192;28;20163;-45
2022/10/10 04:31:48;;;;;;;4.53;3.53;;;13.80;38.90;;;;;;5115892;28;20159;-44
2022/10/10 04:34:14;;;;;;;4.28;3.10;;;13.80;39.00;;;;;;5115572;28;20178;-44
2022/10/10 04:36:40;;;;;;;4.07;3.67;;;13.80;39.00;;;;;;5115124;28;20542;-44
2022/10/10 04:39:06;;;;;;;4.80;3.50;;;13.80;38.80;;;;;;5115779;28;20516;-44
2022/10/10 04:41:32;;;;;;;12.00;2.93;;;13.90;38.90;;;;;;5115767;28;20239;-44
2022/10/10 04:43:58;;;;;;;4.40;2.50;;;13.90;38.90;;;;;;5115703;28;20250;-44
2022/10/10 04:46:24;;;;;;;3.83;2.77;;;13.90;38.80;;;;;;5114863;28;20706;-44
2022/10/10 04:48:49;;;;;;;3.27;2.90;;;13.80;39.00;;;;;;5115384;27;20405;-44
2022/10/10 04:51:15;;;;;;;4.17;2.70;;;13.90;39.00;;;;;;5115388;28;20405;-43
2022/10/10 04:53:41;;;;;;;6.43;3.45;;;13.90;38.90;;;;;;5115574;28;20247;-43
2022/10/10 04:56:07;;;;;;;8.23;3.60;;;13.90;38.90;;;;;;5114849;28;20662;-43
2022/10/10 04:58:33;;;;;;;4.10;3.07;;;13.90;38.80;;;;;;5115522;28;20171;-44
2022/10/10 05:00:58;;;;;;;5.60;3.40;;;13.90;38.90;;;;;;5115617;28;20175;-43
2022/10/10 05:03:24;;;;;;;10.40;3.10;;;13.80;38.80;;;;;;5115439;28;20716;-44
2022/10/10 05:05:50;;;;;;;5.72;4.03;;;13.90;38.90;;;;;;5114345;28;20291;-43
2022/10/10 05:08:17;;;;;;;5.13;2.60;;;13.90;39.00;;;;;;5115412;28;20258;-44
2022/10/10 05:10:45;;;;;;;5.20;3.50;;;13.90;38.90;;;;;;5115063;28;20405;-43
2022/10/10 05:13:13;;;;;;;5.55;3.53;;;13.90;39.00;;;;;;5115027;28;20194;-44
2022/10/10 05:15:40;;;;;;;7.63;3.05;;;13.90;38.80;;;;;;5113904;28;20183;-44
2022/10/10 05:18:06;;;;;;;3.70;3.35;;;13.90;38.80;;;;;;5115101;28;20183;-43
2022/10/10 05:20:33;;;;;;;3.93;3.00;;;14.00;38.70;;;;;;5114792;28;20591;-43
2022/10/10 05:22:59;;;;;;;3.80;3.40;;;14.00;38.60;;;;;;5114767;28;20432;-43
2022/10/10 05:25:25;;;;;;;4.67;3.53;;;14.00;38.70;;;;;;5114479;28;20234;-44
2022/10/10 05:27:51;;;;;;;5.30;3.05;;;13.90;39.40;;;;;;5114185;28;20404;-43
2022/10/10 05:30:17;;;;;;;5.03;3.30;;;14.00;38.70;;;;;;5114738;28;20171;-43
2022/10/10 05:32:43;;;;;;;5.18;3.60;;;14.00;38.80;;;;;;5114614;28;20254;-43
2022/10/10 05:35:09;;;;;;;4.80;2.87;;;14.00;38.90;;;;;;5114708;27;20312;-43
2022/10/10 05:37:34;;;;;;;8.10;2.70;;;14.00;38.90;;;;;;5114072;28;20523;-43
2022/10/10 05:40:00;;;;;;;4.43;2.80;;;14.00;38.80;;;;;;5114559;27;20446;-43
2022/10/10 05:42:26;;;;;;;6.70;3.40;;;14.00;38.90;;;;;;5114496;28;20178;-42
2022/10/10 05:44:52;;;;;;;4.83;3.70;;;14.10;38.90;;;;;;5114569;28;20175;-44
2022/10/10 05:47:18;;;;;;;4.90;2.83;;;14.10;38.80;;;;;;5113498;28;20421;-43
2022/10/10 05:49:43;;;;;;;7.37;3.30;;;14.20;38.70;;;;;;5114239;28;20228;-44
2022/10/10 05:52:09;;;;;;;7.57;3.70;;;14.20;38.70;;;;;;5114145;28;20174;-43
2022/10/10 05:54:35;;;;;;;8.17;3.30;;;14.20;38.60;;;;;;5114307;28;20178;-44
2022/10/10 05:57:00;;;;;;;6.47;4.10;;;14.20;38.60;;;;;;5113437;28;20198;-44
2022/10/10 05:59:28;;;;;;;6.63;3.90;;;14.20;38.70;;;;;;5114153;28;20171;-42
2022/10/10 06:01:54;;;;;;;5.45;2.88;;;14.10;38.70;;;;;;5114351;28;20243;-43
2022/10/10 06:04:22;;;;;;;4.13;2.92;;;14.20;38.80;;;;;;5113925;28;20185;-43
2022/10/10 06:06:48;;;;;;;5.40;3.15;;;14.20;38.70;;;;;;5113203;28;20207;-42
2022/10/10 06:09:14;;;;;;;9.05;3.22;;;14.30;38.70;;;;;;5114192;28;20206;-43
2022/10/10 06:11:39;;;;;;;5.57;3.60;;;14.20;38.60;;;;;;5120531;22;20682;-43
2022/10/10 06:14:05;;;;;;;4.33;3.43;;;14.30;38.60;;;;;;5093528;28;20449;-43
2022/10/10 06:16:31;;;;;;;5.30;3.37;;;14.30;38.60;;;;;;5092863;28;20405;-43
2022/10/10 06:18:57;;;;;;;6.88;3.00;;;14.40;38.50;;;;;;5093273;28;20401;-43
2022/10/10 06:21:24;;;;;;;4.75;2.97;;;14.50;38.50;;;;;;5093124;28;20574;-43
2022/10/10 06:23:50;;;;;;;5.88;3.50;;;14.60;38.40;;;;;;5093338;28;20171;-43
2022/10/10 06:26:16;;;;;;;6.00;3.73;;;14.70;38.30;;;;;;5091701;28;20207;-43
2022/10/10 06:28:42;;;;;;;5.72;3.38;;;14.70;38.30;;;;;;5093146;28;20489;-43
2022/10/10 06:31:11;;;;;;;7.67;2.90;;;14.80;38.00;;;;;;5093136;28;20568;-43
2022/10/10 06:33:37;;;;;;;4.72;3.05;;;14.90;38.00;;;;;;5093092;28;20164;-43
2022/10/10 06:36:07;;;;;;;5.77;3.47;;;15.00;38.10;;;;;;5092322;28;20199;-43
2022/10/10 06:38:40;;;;;;;6.60;3.30;;;15.00;37.90;;;;;;5092937;28;20409;-43
2022/10/10 06:41:07;;;;;;;6.30;2.80;;;15.10;37.80;;;;;;5093050;28;20196;-43
2022/10/10 06:43:33;;;;;;;4.07;3.00;;;15.20;37.70;;;;;;5092751;28;20176;-43
2022/10/10 06:46:00;;;;;;;5.88;3.25;;;15.30;37.80;;;;;;5092289;28;20608;-43
2022/10/10 06:48:26;;;;;;;5.38;2.92;;;15.30;37.30;;;;;;5092654;28;20500;-43
2022/10/10 06:51:00;;;;;;;4.60;3.38;;;15.30;37.20;;;;;;5092684;28;20163;-43
2022/10/10 06:53:26;;;;;;;10.15;2.95;;;15.40;36.80;;;;;;5092677;28;20166;-43
2022/10/10 06:55:54;;;;;;;6.00;4.13;;;15.30;37.30;;;;;;5092092;28;20178;-43
2022/10/10 06:58:20;;;;;;;4.85;3.50;;;15.40;37.20;;;;;;5092615;28;20255;-43
2022/10/10 07:01:04;;;;;;;9.18;3.38;;;15.40;36.90;;;;;;5092511;28;20183;-43
2022/10/10 07:03:30;;;;;;;3.60;2.90;;;15.40;37.10;;;;;;5092571;28;20168;-43
2022/10/10 07:05:59;;;;;;;9.80;3.60;;;15.40;37.30;;;;;;5091889;28;20631;-43
2022/10/10 07:08:25;;;;;;;3.58;3.05;;;15.40;37.30;;;;;;5092469;28;20455;-43
2022/10/10 07:10:51;;;;;;;4.22;2.97;;;15.40;37.20;;;;;;5092499;28;20179;-43
2022/10/10 07:13:17;;;;;;;4.40;3.40;;;15.50;37.20;;;;;;5092282;28;20180;-43
2022/10/10 07:15:43;;;;;;;3.95;3.40;;;15.40;37.00;;;;;;5091684;28;20410;-43
2022/10/10 07:18:09;;;;;;;5.50;3.10;;;15.40;37.20;;;;;;5092561;28;20180;-43
2022/10/10 07:20:36;;;;;;;7.63;3.72;;;15.40;37.30;;;;;;5092526;28;20832;-43
2022/10/10 07:23:03;;;;;;;4.38;3.42;;;15.60;37.40;;;;;;5092483;28;20579;-43
2022/10/10 07:25:28;;;;;;;7.50;3.85;;;15.60;37.30;;;;;;5092322;28;20237;-43
2022/10/10 07:27:55;;;;;;;5.00;2.97;;;15.70;37.40;;;;;;5091776;28;20189;-43
2022/10/10 07:30:22;;;;;;;6.80;3.50;;;15.80;37.40;;;;;;5092058;28;20414;-43
2022/10/10 07:32:48;;;;;;;4.10;3.33;;;15.80;37.10;;;;;;5092271;28;20291;-43
2022/10/10 07:35:14;;;;;;;7.30;2.77;;;15.80;37.20;;;;;;5092258;28;20552;-43
2022/10/10 07:37:40;;;;;;;5.90;3.80;;;15.80;37.00;;;;;;5091599;28;20804;-43
2022/10/10 07:40:08;;;;;;;5.50;3.30;;;15.80;37.20;;;;;;5092316;28;20193;-43
2022/10/10 07:42:34;;;;;;;12.20;3.92;;;15.90;37.40;;;;;;5091899;28;20482;-43
2022/10/10 07:44:59;;;;;;;5.03;3.45;;;16.00;37.10;;;;;;5091947;28;20655;-43
2022/10/10 07:47:25;;;;;;;3.20;2.83;;;16.10;36.90;;;;;;5091513;28;20175;-43
2022/10/10 07:49:51;;;;;;;5.63;3.27;;;16.20;37.10;;;;;;5092076;28;20196;-43
2022/10/10 07:52:16;;;;;;;5.77;3.13;;;16.20;36.60;;;;;;5091808;28;20521;-43
2022/10/10 07:54:42;;;;;;;4.93;3.23;;;16.30;37.10;;;;;;5092027;28;20172;-43
2022/10/10 07:57:08;;;;;;;4.72;3.10;;;16.40;37.20;;;;;;5091295;28;20171;-43
2022/10/10 07:59:34;;;;;;;7.47;3.00;;;16.50;36.80;;;;;;5091930;28;20286;-43
2022/10/10 08:02:00;;;;;;;6.65;3.80;;;16.50;37.00;;;;;;5092072;28;20597;-43
2022/10/10 08:04:26;;;;;;;5.23;3.47;;;16.60;37.20;;;;;;5091873;28;20172;-43
2022/10/10 08:06:52;;;;;;;6.77;3.20;;;16.70;36.90;;;;;;5091473;28;20515;-43
2022/10/10 08:09:17;;;;;;;4.33;3.33;;;16.70;36.60;;;;;;5091860;28;20165;-43
2022/10/10 08:11:43;;;;;;;4.70;3.03;;;16.80;36.70;;;;;;5092183;28;20573;-44
2022/10/10 08:14:09;;;;;;;4.47;3.37;;;16.80;36.50;;;;;;5091798;28;20654;-43
2022/10/10 08:16:35;;;;;;;6.87;3.23;;;16.90;36.30;;;;;;5091330;28;20186;-43
2022/10/10 08:19:00;;;;;;;4.10;3.67;;;17.00;36.30;;;;;;5091895;28;20764;-43
2022/10/10 08:21:26;;;;;;;5.17;3.40;;;17.00;36.10;;;;;;5091658;28;20432;-43
2022/10/10 08:23:52;;;;;;;4.53;3.33;;;17.10;35.60;;;;;;5091728;28;20554;-43
2022/10/10 08:26:18;;;;;;;5.37;2.80;;;17.20;36.10;;;;;;5091031;28;20194;-44
2022/10/10 08:28:46;;;;;;;5.05;2.90;;;17.20;36.10;;;;;;5091576;28;20203;-43
2022/10/10 08:31:14;;;;;;;4.15;3.10;;;17.30;35.90;;;;;;5091697;28;20200;-43
2022/10/10 08:33:42;;;;;;;3.92;2.90;;;17.30;35.80;;;;;;5092057;28;20168;-43
2022/10/10 08:36:09;;;;;;;8.23;3.63;;;17.40;35.90;;;;;;5091027;28;20211;-43
2022/10/10 08:38:35;;;;;;;6.57;3.53;;;17.50;36.00;;;;;;5091609;28;20171;-44
2022/10/10 08:41:07;;;;;;;5.13;3.83;;;17.60;35.80;;;;;;5091494;28;20184;-43
2022/10/10 08:43:55;;;;;;;5.88;3.80;;;17.60;36.10;;;;;;5091528;28;20402;-44
2022/10/10 08:46:32;;;;;;;5.72;3.00;;;17.70;35.20;;;;;;5090897;28;20262;-43
2022/10/10 08:49:10;;;;;;;6.80;3.60;;;17.70;35.70;;;;;;5092412;28;20185;-43
2022/10/10 08:51:39;;;;;;;3.67;3.10;;;17.80;35.80;;;;;;5094943;28;20226;-43
2022/10/10 08:54:07;;;;;;;4.18;3.05;;;17.90;35.60;;;;;;5095260;28;20317;-43
2022/10/10 08:56:34;;;;;;;5.00;3.33;;;18.00;35.50;;;;;;5094378;28;20272;-43
2022/10/10 08:59:09;;;;;;;8.43;3.53;;;18.00;35.10;;;;;;5094915;28;20264;-43
2022/10/10 09:01:37;;;;;;;4.82;3.17;;;18.00;35.20;;;;;;5094702;28;20282;-43
2022/10/10 09:04:06;;;;;;;8.40;3.42;;;18.00;35.20;;;;;;5094775;28;20174;-43
2022/10/10 09:07:03;;;;;;;5.57;3.45;;;18.10;35.60;;;;;;5094090;28;20689;-43
2022/10/10 09:10:05;;;;;;;9.70;4.10;;;18.10;34.90;;;;;;5094592;28;20512;-43
2022/10/10 09:12:37;;;;;;;7.68;3.63;;;18.00;34.60;;;;;;5094446;28;20215;-43
2022/10/10 09:15:21;;;;;;;6.68;4.35;;;18.00;35.10;;;;;;5094700;28;20263;-43
2022/10/10 09:18:06;;;;;;;10.60;3.70;;;18.10;34.80;;;;;;5093995;28;20164;-43
2022/10/10 09:20:46;;;;;;;9.00;3.92;;;18.10;34.90;;;;;;5094435;28;20277;-44
2022/10/10 09:23:26;;;;;;;5.68;3.50;;;18.10;35.20;;;;;;5094468;28;20512;-43
2022/10/10 09:26:00;;;;;;;6.57;3.47;;;18.20;35.20;;;;;;5094000;28;20253;-44
2022/10/10 09:28:48;;;;;;;9.48;3.50;;;18.30;35.00;;;;;;5094390;28;20228;-43
2022/10/10 09:31:27;;;;;;;4.63;3.42;;;18.30;35.10;;;;;;5094264;28;20195;-43
2022/10/10 09:34:05;;;;;;;7.50;3.35;;;18.40;35.50;;;;;;5094940;28;20239;-43
2022/10/10 09:36:34;;;;;;;5.10;2.97;;;18.50;35.40;;;;;;5093974;28;20166;-43
2022/10/10 09:39:22;;;;;;;4.88;3.83;;;18.60;34.70;;;;;;5094204;28;20203;-43
2022/10/10 09:42:00;;;;;;;6.40;3.78;;;18.70;35.30;;;;;;5094042;28;20547;-43
2022/10/10 09:44:26;;;;;;;9.80;7.22;;;19.00;35.30;;;;;;5094069;28;20539;-44
2022/10/10 09:46:52;;;;;;;6.28;3.50;;;19.20;35.30;;;;;;5093428;28;20651;-43
2022/10/10 09:49:19;;;;;;;4.47;3.17;;;19.40;34.20;;;;;;5093930;28;20225;-43
2022/10/10 09:51:46;;;;;;;10.27;3.95;;;20.30;34.10;;;;;;5093757;28;20418;-43
2022/10/10 09:54:15;;;;;;;12.98;3.58;;;19.80;34.40;;;;;;5094092;28;20172;-44
2022/10/10 09:56:52;;;;;;;6.45;3.50;;;19.90;33.40;;;;;;5093263;28;20180;-43
2022/10/10 09:59:39;;;;;;;5.78;3.67;;;20.00;33.50;;;;;;5093887;28;20168;-43
2022/10/10 10:02:20;;;;;;;3.88;3.22;;;20.10;33.50;;;;;;5093588;28;20201;-43
2022/10/10 10:04:47;;;;;;;6.18;4.10;;;20.20;32.90;;;;;;5093599;28;20160;-44
2022/10/10 10:07:35;;;;;;;6.25;3.70;;;20.20;32.90;;;;;;5092978;28;20191;-44
2022/10/10 10:10:15;;;;;;;15.35;12.18;;;20.30;33.40;;;;;;5093846;28;20172;-44
2022/10/10 10:12:43;;;;;;;8.70;3.78;;;20.50;34.00;;;;;;5093203;28;20578;-43
2022/10/10 10:15:27;;;;;;;4.18;2.83;;;20.60;33.40;;;;;;5093709;28;20233;-44
2022/10/10 10:18:29;;;;;;;4.22;3.05;;;20.60;31.80;;;;;;5092886;28;20171;-44
2022/10/10 10:21:07;;;;;;;5.20;3.50;;;20.60;32.60;;;;;;5010995;28;20197;-43
2022/10/10 10:23:39;;;;;;;5.95;3.60;;;20.60;33.00;;;;;;5011102;28;20709;-43
2022/10/10 10:26:26;;;;;;;6.45;2.92;;;20.60;32.50;;;;;;5010486;28;20277;-43
2022/10/10 10:28:53;;;;;;;6.25;3.47;;;20.50;32.00;;;;;;5011140;28;20174;-44
2022/10/10 10:31:47;;;;;;;8.23;3.85;;;20.50;32.50;;;;;;5010824;28;20226;-44
2022/10/10 10:35:03;;;;;;;5.60;3.80;;;20.40;32.50;;;;;;5010879;28;20159;-43
2022/10/10 10:37:57;;;;;;;7.13;4.40;;;20.30;33.10;;;;;;4993795;28;20178;-43
2022/10/10 10:40:49;;;;;;;7.30;3.42;;;20.30;32.70;;;;;;5010830;28;20170;-43
2022/10/10 10:43:30;;;;;;;5.18;3.58;;;20.30;33.00;;;;;;5010742;28;20191;-44
2022/10/10 10:46:07;;;;;;;3.72;2.97;;;20.40;33.50;;;;;;5010016;28;20198;-44
2022/10/10 10:48:52;;;;;;;5.75;3.63;;;20.50;33.80;;;;;;5010762;28;20166;-44
2022/10/10 10:51:43;;;;;;;4.90;3.40;;;20.50;32.90;;;;;;5010590;28;20187;-44
2022/10/10 10:54:48;;;;;;;5.10;3.38;;;20.60;33.10;;;;;;5025541;28;20176;-44
2022/10/10 10:57:21;;;;;;;3.90;3.50;;;20.70;33.00;;;;;;5092111;28;20163;-43
2022/10/10 10:59:56;;;;;;;4.35;3.13;;;20.80;33.00;;;;;;5091237;28;20264;-44
2022/10/10 11:02:52;;;;;;;5.05;3.40;;;20.90;33.60;;;;;;5092865;28;20195;-43
2022/10/10 11:05:36;;;;;;;5.28;3.45;;;21.20;32.90;;;;;;5092510;28;20239;-43
2022/10/10 11:08:29;;;;;;;3.67;3.08;;;21.40;32.30;;;;;;5092537;28;20167;-44
2022/10/10 11:11:10;;;;;;;3.40;3.10;;;21.40;32.30;;;;;;5092184;28;20164;-44
2022/10/10 11:14:02;;;;;;;3.97;3.03;;;21.60;32.00;;;;;;5092251;28;20167;-43
2022/10/10 11:16:41;;;;;;;5.50;3.45;;;21.60;32.10;;;;;;5060651;28;20207;-44
2022/10/10 11:19:10;;;;;;;6.07;3.78;;;21.60;32.10;;;;;;5092314;28;20175;-44
2022/10/10 11:22:04;;;;;;;3.97;3.50;;;21.50;32.10;;;;;;5092304;28;20249;-44
2022/10/10 11:24:41;;;;;;;4.97;3.40;;;21.40;31.90;;;;;;5092295;28;20405;-44
2022/10/10 11:27:19;;;;;;;6.40;3.25;;;21.20;32.00;;;;;;5091871;28;20286;-44
2022/10/10 11:30:12;;;;;;;4.95;3.60;;;21.20;32.60;;;;;;5092665;28;20156;-43
2022/10/10 11:33:03;;;;;;;7.35;3.42;;;21.10;32.40;;;;;;5092173;28;20734;-44
2022/10/10 11:35:43;;;;;;;4.90;3.70;;;21.00;32.50;;;;;;5092312;28;20177;-44
2022/10/10 11:38:15;;;;;;;6.18;4.03;;;21.00;32.40;;;;;;5092109;28;20555;-43
2022/10/10 11:41:07;;;;;;;4.00;3.47;;;21.00;32.80;;;;;;5092164;28;20615;-44
2022/10/10 11:43:56;;;;;;;6.35;4.03;;;21.00;32.70;;;;;;5091312;28;20184;-44
2022/10/10 11:46:42;;;;;;;6.78;3.45;;;21.00;33.00;;;;;;5090626;28;20204;-43
2022/10/10 11:49:10;;;;;;;6.53;3.88;;;21.20;32.90;;;;;;5092022;28;20213;-44
2022/10/10 11:51:45;;;;;;;5.78;3.60;;;21.40;32.90;;;;;;5092092;28;20191;-44
2022/10/10 11:54:40;;;;;;;5.47;3.20;;;21.60;32.30;;;;;;5092303;28;20187;-43
2022/10/10 11:57:31;;;;;;;4.95;2.95;;;21.90;32.50;;;;;;5091586;28;20172;-44
2022/10/10 12:00:06;;;;;;;3.88;3.35;;;22.10;31.40;;;;;;5082405;28;20180;-43
2022/10/10 12:02:33;;;;;;;7.53;3.60;;;22.00;31.00;;;;;;5091715;28;20714;-43
2022/10/10 12:04:59;;;;;;;7.55;3.75;;;21.90;31.80;;;;;;5091876;28;20540;-44
2022/10/10 12:07:39;;;;;;;3.90;3.42;;;21.80;31.40;;;;;;5090954;28;20195;-44
2022/10/10 12:10:20;;;;;;;5.60;3.20;;;21.70;31.60;;;;;;5091868;28;20160;-44
2022/10/10 12:12:49;;;;;;;8.75;4.20;;;21.60;31.80;;;;;;5091623;28;20214;-44
2022/10/10 12:15:28;;;;;;;5.80;3.75;;;21.40;32.50;;;;;;5091699;28;20726;-44
2022/10/10 12:17:55;;;;;;;5.35;3.30;;;21.40;33.00;;;;;;5091555;28;20179;-44
2022/10/10 12:20:24;;;;;;;7.05;3.47;;;21.40;32.10;;;;;;5091908;28;20172;-43
2022/10/10 12:23:12;;;;;;;6.05;4.05;;;21.40;32.70;;;;;;5091836;28;20181;-44
2022/10/10 12:25:41;;;;;;;4.60;4.03;;;21.40;33.00;;;;;;5094244;28;20200;-44
2022/10/10 12:28:12;;;;;;;5.75;3.70;;;21.60;33.30;;;;;;5095424;28;20401;-43
2022/10/10 12:30:56;;;;;;;5.97;4.00;;;21.90;32.30;;;;;;5095505;28;20640;-45
2022/10/10 12:33:28;;;;;;;5.90;3.53;;;22.10;32.70;;;;;;5095473;28;20397;-44
2022/10/10 12:35:54;;;;;;;6.40;3.50;;;22.40;32.50;;;;;;5094843;28;20504;-44
2022/10/10 12:38:25;;;;;;;4.47;3.50;;;22.60;32.50;;;;;;5095223;28;20803;-43
2022/10/10 12:40:57;;;;;;;8.90;4.13;;;23.00;32.10;;;;;;5095420;28;20482;-44
2022/10/10 12:43:42;;;;;;;5.13;3.77;;;23.40;31.60;;;;;;5095557;28;20408;-46
2022/10/10 12:46:19;;;;;;;4.50;3.67;;;24.10;30.50;;;;;;5094574;28;20434;-43
2022/10/10 12:49:00;;;;;;;4.50;3.80;;;24.90;29.60;;;;;;5095022;28;20402;-44
2022/10/10 12:51:28;;;;;;;7.40;3.60;;;25.20;28.40;;;;;;5095022;28;20443;-44
2022/10/10 12:53:57;;;;;;;5.87;3.57;;;25.20;27.60;;;;;;5094922;28;20901;-44
2022/10/10 12:56:42;;;;;;;6.17;4.20;;;24.90;28.60;;;;;;5094636;28;20403;-44
2022/10/10 12:59:19;;;;;;;8.23;3.87;;;24.60;29.70;;;;;;5094819;28;20874;-45
2022/10/10 13:01:51;;;;;;;9.13;3.73;;;24.20;29.00;;;;;;5094986;28;20456;-44
2022/10/10 13:04:18;;;;;;;8.00;4.17;;;23.90;29.20;;;;;;5094850;28;20415;-42
2022/10/10 13:06:46;;;;;;;7.20;4.13;;;23.60;30.20;;;;;;5094116;28;20450;-43
2022/10/10 13:09:29;;;;;;;10.23;4.30;;;23.30;30.50;;;;;;5094736;28;20441;-43